sensor_id;sensor_type;location;lat;lon;timestamp;P1;durP1;ratioP1;P2;durP2;ratioP2
26474;SDS011;14161;52.270;10.334;2022-08-02T00:01:37;3.42;;;1.35;;
26474;SDS011;14161;52.270;10.334;2022-08-02T00:04:03;3.58;;;1.20;;
26474;SDS011;14161;52.270;10.334;2022-08-02T00:06:28;2.15;;;1.02;;
26474;SDS011;14161;52.270;10.334;2022-08-02T00:08:54;4.43;;;0.98;;
26474;SDS011;14161;52.270;10.334;2022-08-02T00:11:19;2.95;;;1.15;;
26474;SDS011;14161;52.270;10.334;2022-08-02T00:13:45;2.25;;;1.30;;
26474;SDS011;14161;52.270;10.334;2022-08-02T00:16:10;4.78;;;1.40;;
26474;SDS011;14161;52.270;10.334;2022-08-02T00:18:36;2.97;;;0.90;;
26474;SDS011;14161;52.270;10.334;2022-08-02T00:21:02;2.22;;;0.95;;
26474;SDS011;14161;52.270;10.334;2022-08-02T00:23:27;4.63;;;1.15;;
26474;SDS011;14161;52.270;10.334;2022-08-02T00:25:53;5.35;;;1.20;;
26474;SDS011;14161;52.270;10.334;2022-08-02T00:28:18;6.78;;;1.40;;
26474;SDS011;14161;52.270;10.334;2022-08-02T00:30:44;2.72;;;1.00;;
26474;SDS011;14161;52.270;10.334;2022-08-02T00:33:09;2.80;;;1.30;;
26474;SDS011;14161;52.270;10.334;2022-08-02T00:35:35;4.63;;;1.25;;
26474;SDS011;14161;52.270;10.334;2022-08-02T00:38:01;3.17;;;1.00;;
26474;SDS011;14161;52.270;10.334;2022-08-02T00:40:27;5.25;;;1.27;;
26474;SDS011;14161;52.270;10.334;2022-08-02T00:43:03;3.05;;;1.42;;
26474;SDS011;14161;52.270;10.334;2022-08-02T00:45:31;5.28;;;1.30;;
26474;SDS011;14161;52.270;10.334;2022-08-02T00:47:57;3.10;;;0.98;;
26474;SDS011;14161;52.270;10.334;2022-08-02T00:50:24;5.93;;;1.35;;
26474;SDS011;14161;52.270;10.334;2022-08-02T00:52:49;5.28;;;1.35;;
26474;SDS011;14161;52.270;10.334;2022-08-02T00:55:15;2.75;;;1.30;;
26474;SDS011;14161;52.270;10.334;2022-08-02T00:57:40;2.72;;;1.17;;
26474;SDS011;14161;52.270;10.334;2022-08-02T01:00:06;3.15;;;1.20;;
26474;SDS011;14161;52.270;10.334;2022-08-02T01:02:32;3.00;;;1.15;;
26474;SDS011;14161;52.270;10.334;2022-08-02T01:04:57;2.83;;;1.20;;
26474;SDS011;14161;52.270;10.334;2022-08-02T01:07:23;3.05;;;1.30;;
26474;SDS011;14161;52.270;10.334;2022-08-02T01:09:48;2.65;;;1.25;;
26474;SDS011;14161;52.270;10.334;2022-08-02T01:12:14;3.97;;;1.15;;
26474;SDS011;14161;52.270;10.334;2022-08-02T01:14:40;3.17;;;1.25;;
26474;SDS011;14161;52.270;10.334;2022-08-02T01:17:15;3.35;;;1.20;;
26474;SDS011;14161;52.270;10.334;2022-08-02T01:27:48;2.40;;;1.20;;
26474;SDS011;14161;52.270;10.334;2022-08-02T01:30:24;3.13;;;1.08;;
26474;SDS011;14161;52.270;10.334;2022-08-02T01:32:52;2.42;;;0.90;;
26474;SDS011;14161;52.270;10.334;2022-08-02T01:35:21;3.75;;;1.10;;
26474;SDS011;14161;52.270;10.334;2022-08-02T01:40:24;3.85;;;1.20;;
26474;SDS011;14161;52.270;10.334;2022-08-02T01:42:53;4.80;;;1.20;;
26474;SDS011;14161;52.270;10.334;2022-08-02T01:45:20;2.40;;;1.00;;
26474;SDS011;14161;52.270;10.334;2022-08-02T01:47:46;3.22;;;1.08;;
26474;SDS011;14161;52.270;10.334;2022-08-02T01:50:13;4.93;;;1.45;;
26474;SDS011;14161;52.270;10.334;2022-08-02T01:52:42;1.95;;;1.02;;
26474;SDS011;14161;52.270;10.334;2022-08-02T01:55:12;3.33;;;1.50;;
26474;SDS011;14161;52.270;10.334;2022-08-02T01:57:52;2.13;;;1.13;;
26474;SDS011;14161;52.270;10.334;2022-08-02T02:00:22;3.08;;;1.27;;
26474;SDS011;14161;52.270;10.334;2022-08-02T02:02:49;6.97;;;1.33;;
26474;SDS011;14161;52.270;10.334;2022-08-02T02:05:18;4.75;;;1.27;;
26474;SDS011;14161;52.270;10.334;2022-08-02T02:07:45;2.88;;;1.20;;
26474;SDS011;14161;52.270;10.334;2022-08-02T02:10:15;4.10;;;1.33;;
26474;SDS011;14161;52.270;10.334;2022-08-02T02:12:45;1.58;;;1.10;;
26474;SDS011;14161;52.270;10.334;2022-08-02T02:15:11;7.22;;;1.40;;
26474;SDS011;14161;52.270;10.334;2022-08-02T02:17:37;4.50;;;1.77;;
26474;SDS011;14161;52.270;10.334;2022-08-02T02:20:05;3.20;;;1.30;;
26474;SDS011;14161;52.270;10.334;2022-08-02T02:22:32;2.70;;;1.25;;
26474;SDS011;14161;52.270;10.334;2022-08-02T02:24:57;4.00;;;1.23;;
26474;SDS011;14161;52.270;10.334;2022-08-02T02:27:23;2.33;;;1.02;;
26474;SDS011;14161;52.270;10.334;2022-08-02T02:29:49;2.33;;;1.10;;
26474;SDS011;14161;52.270;10.334;2022-08-02T02:32:16;2.63;;;1.10;;
26474;SDS011;14161;52.270;10.334;2022-08-02T02:34:43;2.47;;;1.10;;
26474;SDS011;14161;52.270;10.334;2022-08-02T02:37:27;2.05;;;1.10;;
26474;SDS011;14161;52.270;10.334;2022-08-02T02:39:54;2.75;;;1.02;;
26474;SDS011;14161;52.270;10.334;2022-08-02T02:42:21;2.95;;;1.02;;
26474;SDS011;14161;52.270;10.334;2022-08-02T02:44:49;2.92;;;1.25;;
26474;SDS011;14161;52.270;10.334;2022-08-02T02:47:15;1.88;;;1.08;;
26474;SDS011;14161;52.270;10.334;2022-08-02T02:49:44;2.40;;;1.17;;
26474;SDS011;14161;52.270;10.334;2022-08-02T02:52:11;2.55;;;1.30;;
26474;SDS011;14161;52.270;10.334;2022-08-02T02:54:39;4.50;;;1.40;;
26474;SDS011;14161;52.270;10.334;2022-08-02T02:57:06;2.85;;;1.10;;
26474;SDS011;14161;52.270;10.334;2022-08-02T02:59:33;2.60;;;1.30;;
26474;SDS011;14161;52.270;10.334;2022-08-02T03:02:00;1.55;;;1.40;;
26474;SDS011;14161;52.270;10.334;2022-08-02T03:04:26;3.83;;;1.02;;
26474;SDS011;14161;52.270;10.334;2022-08-02T03:06:53;2.72;;;1.17;;
26474;SDS011;14161;52.270;10.334;2022-08-02T03:09:18;1.77;;;0.90;;
26474;SDS011;14161;52.270;10.334;2022-08-02T03:11:44;2.53;;;1.10;;
26474;SDS011;14161;52.270;10.334;2022-08-02T03:14:10;2.95;;;0.95;;
26474;SDS011;14161;52.270;10.334;2022-08-02T03:16:47;1.52;;;1.02;;
26474;SDS011;14161;52.270;10.334;2022-08-02T03:19:14;2.25;;;1.25;;
26474;SDS011;14161;52.270;10.334;2022-08-02T03:21:43;2.42;;;1.27;;
26474;SDS011;14161;52.270;10.334;2022-08-02T03:24:10;1.33;;;0.85;;
26474;SDS011;14161;52.270;10.334;2022-08-02T03:26:35;1.60;;;1.10;;
26474;SDS011;14161;52.270;10.334;2022-08-02T03:29:01;2.92;;;1.33;;
26474;SDS011;14161;52.270;10.334;2022-08-02T03:31:27;4.15;;;1.50;;
26474;SDS011;14161;52.270;10.334;2022-08-02T03:33:53;2.20;;;1.10;;
26474;SDS011;14161;52.270;10.334;2022-08-02T03:36:20;3.22;;;1.27;;
26474;SDS011;14161;52.270;10.334;2022-08-02T03:38:47;3.20;;;1.17;;
26474;SDS011;14161;52.270;10.334;2022-08-02T03:41:15;1.80;;;1.25;;
26474;SDS011;14161;52.270;10.334;2022-08-02T03:43:41;1.83;;;1.00;;
26474;SDS011;14161;52.270;10.334;2022-08-02T03:46:08;4.93;;;1.52;;
26474;SDS011;14161;52.270;10.334;2022-08-02T03:48:34;3.83;;;1.52;;
26474;SDS011;14161;52.270;10.334;2022-08-02T03:51:01;2.58;;;1.20;;
26474;SDS011;14161;52.270;10.334;2022-08-02T03:53:26;5.35;;;1.35;;
26474;SDS011;14161;52.270;10.334;2022-08-02T03:55:52;5.10;;;1.67;;
26474;SDS011;14161;52.270;10.334;2022-08-02T03:58:21;1.38;;;1.27;;
26474;SDS011;14161;52.270;10.334;2022-08-02T04:00:48;2.45;;;1.25;;
26474;SDS011;14161;52.270;10.334;2022-08-02T04:03:14;3.80;;;1.70;;
26474;SDS011;14161;52.270;10.334;2022-08-02T04:05:39;3.78;;;1.33;;
26474;SDS011;14161;52.270;10.334;2022-08-02T04:08:06;3.58;;;1.40;;
26474;SDS011;14161;52.270;10.334;2022-08-02T04:10:32;6.50;;;1.83;;
26474;SDS011;14161;52.270;10.334;2022-08-02T04:13:18;2.60;;;1.45;;
26474;SDS011;14161;52.270;10.334;2022-08-02T04:15:44;3.35;;;1.77;;
26474;SDS011;14161;52.270;10.334;2022-08-02T04:18:10;3.45;;;1.58;;
26474;SDS011;14161;52.270;10.334;2022-08-02T04:20:36;2.08;;;1.50;;
26474;SDS011;14161;52.270;10.334;2022-08-02T04:23:06;2.05;;;1.30;;
26474;SDS011;14161;52.270;10.334;2022-08-02T04:25:32;1.33;;;1.13;;
26474;SDS011;14161;52.270;10.334;2022-08-02T04:28:00;6.85;;;1.83;;
26474;SDS011;14161;52.270;10.334;2022-08-02T04:30:26;3.83;;;1.85;;
26474;SDS011;14161;52.270;10.334;2022-08-02T04:32:52;2.72;;;1.48;;
26474;SDS011;14161;52.270;10.334;2022-08-02T04:35:18;3.92;;;1.95;;
26474;SDS011;14161;52.270;10.334;2022-08-02T04:37:44;3.75;;;1.70;;
26474;SDS011;14161;52.270;10.334;2022-08-02T04:40:10;3.65;;;1.48;;
26474;SDS011;14161;52.270;10.334;2022-08-02T04:42:36;2.97;;;1.52;;
26474;SDS011;14161;52.270;10.334;2022-08-02T04:45:02;3.55;;;1.67;;
26474;SDS011;14161;52.270;10.334;2022-08-02T04:47:29;2.45;;;1.52;;
26474;SDS011;14161;52.270;10.334;2022-08-02T04:49:55;2.42;;;1.55;;
26474;SDS011;14161;52.270;10.334;2022-08-02T04:52:20;2.25;;;1.52;;
26474;SDS011;14161;52.270;10.334;2022-08-02T04:54:45;3.20;;;1.58;;
26474;SDS011;14161;52.270;10.334;2022-08-02T04:57:11;3.17;;;1.80;;
26474;SDS011;14161;52.270;10.334;2022-08-02T04:59:55;5.82;;;1.90;;
26474;SDS011;14161;52.270;10.334;2022-08-02T05:02:21;4.57;;;1.70;;
26474;SDS011;14161;52.270;10.334;2022-08-02T05:04:46;4.80;;;2.15;;
26474;SDS011;14161;52.270;10.334;2022-08-02T05:07:11;1.63;;;1.50;;
26474;SDS011;14161;52.270;10.334;2022-08-02T05:09:37;4.20;;;1.63;;
26474;SDS011;14161;52.270;10.334;2022-08-02T05:12:02;3.38;;;2.00;;
26474;SDS011;14161;52.270;10.334;2022-08-02T05:14:28;3.90;;;1.77;;
26474;SDS011;14161;52.270;10.334;2022-08-02T05:16:53;5.53;;;2.00;;
26474;SDS011;14161;52.270;10.334;2022-08-02T05:19:19;5.07;;;1.95;;
26474;SDS011;14161;52.270;10.334;2022-08-02T05:21:44;3.65;;;1.85;;
26474;SDS011;14161;52.270;10.334;2022-08-02T05:24:10;4.18;;;2.03;;
26474;SDS011;14161;52.270;10.334;2022-08-02T05:26:35;3.08;;;2.15;;
26474;SDS011;14161;52.270;10.334;2022-08-02T05:29:00;6.75;;;2.30;;
26474;SDS011;14161;52.270;10.334;2022-08-02T05:31:27;4.45;;;2.47;;
26474;SDS011;14161;52.270;10.334;2022-08-02T05:33:52;4.75;;;2.38;;
26474;SDS011;14161;52.270;10.334;2022-08-02T05:36:18;4.22;;;2.15;;
26474;SDS011;14161;52.270;10.334;2022-08-02T05:38:43;5.68;;;1.92;;
26474;SDS011;14161;52.270;10.334;2022-08-02T05:41:09;4.93;;;2.00;;
26474;SDS011;14161;52.270;10.334;2022-08-02T05:43:34;4.95;;;2.00;;
26474;SDS011;14161;52.270;10.334;2022-08-02T05:45:59;3.90;;;2.10;;
26474;SDS011;14161;52.270;10.334;2022-08-02T05:48:25;4.80;;;1.75;;
26474;SDS011;14161;52.270;10.334;2022-08-02T05:50:53;4.63;;;1.98;;
26474;SDS011;14161;52.270;10.334;2022-08-02T05:53:29;3.97;;;2.10;;
26474;SDS011;14161;52.270;10.334;2022-08-02T06:01:58;4.03;;;1.70;;
26474;SDS011;14161;52.270;10.334;2022-08-02T06:04:32;3.25;;;1.65;;
26474;SDS011;14161;52.270;10.334;2022-08-02T06:06:59;6.45;;;2.25;;
26474;SDS011;14161;52.270;10.334;2022-08-02T06:09:32;4.32;;;2.38;;
26474;SDS011;14161;52.270;10.334;2022-08-02T06:11:58;5.88;;;2.53;;
26474;SDS011;14161;52.270;10.334;2022-08-02T06:14:25;3.95;;;1.92;;
26474;SDS011;14161;52.270;10.334;2022-08-02T06:16:51;3.70;;;2.17;;
26474;SDS011;14161;52.270;10.334;2022-08-02T06:19:17;4.43;;;2.00;;
26474;SDS011;14161;52.270;10.334;2022-08-02T06:21:42;3.45;;;2.03;;
26474;SDS011;14161;52.270;10.334;2022-08-02T06:24:09;6.47;;;1.83;;
26474;SDS011;14161;52.270;10.334;2022-08-02T06:26:35;4.03;;;1.80;;
26474;SDS011;14161;52.270;10.334;2022-08-02T06:29:01;4.15;;;2.00;;
26474;SDS011;14161;52.270;10.334;2022-08-02T06:31:27;3.30;;;1.65;;
26474;SDS011;14161;52.270;10.334;2022-08-02T06:33:52;4.03;;;2.08;;
26474;SDS011;14161;52.270;10.334;2022-08-02T06:36:20;2.65;;;1.58;;
26474;SDS011;14161;52.270;10.334;2022-08-02T06:39:01;3.83;;;1.52;;
26474;SDS011;14161;52.270;10.334;2022-08-02T06:41:39;6.38;;;1.80;;
26474;SDS011;14161;52.270;10.334;2022-08-02T06:44:12;3.17;;;1.63;;
26474;SDS011;14161;52.270;10.334;2022-08-02T06:46:38;5.38;;;1.65;;
26474;SDS011;14161;52.270;10.334;2022-08-02T06:49:04;4.50;;;1.85;;
26474;SDS011;14161;52.270;10.334;2022-08-02T06:51:29;4.90;;;1.58;;
26474;SDS011;14161;52.270;10.334;2022-08-02T06:53:55;4.45;;;2.03;;
26474;SDS011;14161;52.270;10.334;2022-08-02T06:56:20;5.60;;;1.77;;
26474;SDS011;14161;52.270;10.334;2022-08-02T06:58:46;6.18;;;1.92;;
26474;SDS011;14161;52.270;10.334;2022-08-02T07:01:11;6.70;;;2.55;;
26474;SDS011;14161;52.270;10.334;2022-08-02T07:03:37;3.00;;;1.88;;
26474;SDS011;14161;52.270;10.334;2022-08-02T07:06:04;11.23;;;3.30;;
26474;SDS011;14161;52.270;10.334;2022-08-02T07:08:33;5.85;;;3.00;;
26474;SDS011;14161;52.270;10.334;2022-08-02T07:11:02;6.72;;;2.83;;
26474;SDS011;14161;52.270;10.334;2022-08-02T07:13:28;7.57;;;3.13;;
26474;SDS011;14161;52.270;10.334;2022-08-02T07:15:54;6.10;;;2.75;;
26474;SDS011;14161;52.270;10.334;2022-08-02T07:18:20;7.00;;;2.50;;
26474;SDS011;14161;52.270;10.334;2022-08-02T07:20:46;7.47;;;2.47;;
26474;SDS011;14161;52.270;10.334;2022-08-02T07:23:11;6.45;;;2.40;;
26474;SDS011;14161;52.270;10.334;2022-08-02T07:25:37;9.90;;;2.60;;
26474;SDS011;14161;52.270;10.334;2022-08-02T07:28:04;4.88;;;2.22;;
26474;SDS011;14161;52.270;10.334;2022-08-02T07:30:30;6.00;;;1.92;;
26474;SDS011;14161;52.270;10.334;2022-08-02T07:32:57;6.95;;;2.47;;
26474;SDS011;14161;52.270;10.334;2022-08-02T07:35:23;6.22;;;2.50;;
26474;SDS011;14161;52.270;10.334;2022-08-02T07:37:48;7.70;;;2.60;;
26474;SDS011;14161;52.270;10.334;2022-08-02T07:40:14;8.57;;;2.80;;
26474;SDS011;14161;52.270;10.334;2022-08-02T07:42:40;5.68;;;2.47;;
26474;SDS011;14161;52.270;10.334;2022-08-02T07:45:06;8.65;;;2.67;;
26474;SDS011;14161;52.270;10.334;2022-08-02T07:47:35;6.38;;;2.10;;
26474;SDS011;14161;52.270;10.334;2022-08-02T07:50:04;4.95;;;1.83;;
26474;SDS011;14161;52.270;10.334;2022-08-02T07:52:31;4.93;;;2.10;;
26474;SDS011;14161;52.270;10.334;2022-08-02T07:54:56;7.28;;;2.15;;
26474;SDS011;14161;52.270;10.334;2022-08-02T07:57:21;4.82;;;2.47;;
26474;SDS011;14161;52.270;10.334;2022-08-02T07:59:47;6.40;;;2.47;;
26474;SDS011;14161;52.270;10.334;2022-08-02T08:02:13;5.90;;;2.33;;
26474;SDS011;14161;52.270;10.334;2022-08-02T08:04:39;4.72;;;2.53;;
26474;SDS011;14161;52.270;10.334;2022-08-02T08:07:05;8.82;;;2.30;;
26474;SDS011;14161;52.270;10.334;2022-08-02T08:09:34;7.13;;;2.83;;
26474;SDS011;14161;52.270;10.334;2022-08-02T08:12:04;6.18;;;2.05;;
26474;SDS011;14161;52.270;10.334;2022-08-02T08:14:30;8.85;;;1.73;;
26474;SDS011;14161;52.270;10.334;2022-08-02T08:16:58;3.10;;;1.77;;
26474;SDS011;14161;52.270;10.334;2022-08-02T08:19:23;4.10;;;1.85;;
26474;SDS011;14161;52.270;10.334;2022-08-02T08:21:48;2.10;;;1.80;;
26474;SDS011;14161;52.270;10.334;2022-08-02T08:24:14;6.57;;;2.17;;
26474;SDS011;14161;52.270;10.334;2022-08-02T08:26:40;5.18;;;2.40;;
26474;SDS011;14161;52.270;10.334;2022-08-02T08:29:05;9.27;;;2.05;;
26474;SDS011;14161;52.270;10.334;2022-08-02T08:31:31;2.97;;;1.98;;
26474;SDS011;14161;52.270;10.334;2022-08-02T08:34:00;4.97;;;2.15;;
26474;SDS011;14161;52.270;10.334;2022-08-02T08:36:26;4.13;;;2.20;;
26474;SDS011;14161;52.270;10.334;2022-08-02T08:38:51;5.72;;;2.20;;
26474;SDS011;14161;52.270;10.334;2022-08-02T08:41:17;4.07;;;1.80;;
26474;SDS011;14161;52.270;10.334;2022-08-02T08:43:43;3.03;;;1.42;;
26474;SDS011;14161;52.270;10.334;2022-08-02T08:46:10;4.05;;;1.88;;
26474;SDS011;14161;52.270;10.334;2022-08-02T08:48:37;3.90;;;2.08;;
26474;SDS011;14161;52.270;10.334;2022-08-02T08:51:14;3.08;;;1.90;;
26474;SDS011;14161;52.270;10.334;2022-08-02T08:53:43;4.72;;;1.55;;
26474;SDS011;14161;52.270;10.334;2022-08-02T08:56:12;3.60;;;1.75;;
26474;SDS011;14161;52.270;10.334;2022-08-02T08:58:40;3.78;;;1.60;;
26474;SDS011;14161;52.270;10.334;2022-08-02T09:01:07;2.65;;;1.58;;
26474;SDS011;14161;52.270;10.334;2022-08-02T09:03:32;2.75;;;1.83;;
26474;SDS011;14161;52.270;10.334;2022-08-02T09:05:58;2.40;;;1.98;;
26474;SDS011;14161;52.270;10.334;2022-08-02T09:08:24;3.30;;;1.92;;
26474;SDS011;14161;52.270;10.334;2022-08-02T09:10:50;2.80;;;1.55;;
26474;SDS011;14161;52.270;10.334;2022-08-02T09:13:16;3.67;;;2.03;;
26474;SDS011;14161;52.270;10.334;2022-08-02T09:15:45;5.20;;;1.73;;
26474;SDS011;14161;52.270;10.334;2022-08-02T09:18:17;4.60;;;1.80;;
26474;SDS011;14161;52.270;10.334;2022-08-02T09:20:53;2.10;;;1.50;;
26474;SDS011;14161;52.270;10.334;2022-08-02T09:23:23;6.32;;;2.00;;
26474;SDS011;14161;52.270;10.334;2022-08-02T09:25:56;2.25;;;1.42;;
26474;SDS011;14161;52.270;10.334;2022-08-02T09:28:25;3.00;;;1.52;;
26474;SDS011;14161;52.270;10.334;2022-08-02T09:30:55;4.03;;;1.70;;
26474;SDS011;14161;52.270;10.334;2022-08-02T09:33:24;2.38;;;1.45;;
26474;SDS011;14161;52.270;10.334;2022-08-02T09:36:10;5.28;;;2.03;;
26474;SDS011;14161;52.270;10.334;2022-08-02T09:38:37;2.38;;;1.38;;
26474;SDS011;14161;52.270;10.334;2022-08-02T09:41:04;3.10;;;1.70;;
26474;SDS011;14161;52.270;10.334;2022-08-02T09:43:40;2.63;;;1.60;;
26474;SDS011;14161;52.270;10.334;2022-08-02T09:46:14;3.58;;;1.60;;
26474;SDS011;14161;52.270;10.334;2022-08-02T09:48:54;4.22;;;1.73;;
26474;SDS011;14161;52.270;10.334;2022-08-02T09:53:53;5.97;;;1.50;;
26474;SDS011;14161;52.270;10.334;2022-08-02T09:56:21;3.08;;;1.38;;
26474;SDS011;14161;52.270;10.334;2022-08-02T09:58:48;4.13;;;1.52;;
26474;SDS011;14161;52.270;10.334;2022-08-02T10:01:15;4.20;;;1.95;;
26474;SDS011;14161;52.270;10.334;2022-08-02T10:06:24;5.53;;;1.80;;
26474;SDS011;14161;52.270;10.334;2022-08-02T10:08:50;2.58;;;1.63;;
26474;SDS011;14161;52.270;10.334;2022-08-02T10:11:18;1.80;;;1.60;;
26474;SDS011;14161;52.270;10.334;2022-08-02T10:13:44;1.63;;;1.35;;
26474;SDS011;14161;52.270;10.334;2022-08-02T10:16:10;2.42;;;1.50;;
26474;SDS011;14161;52.270;10.334;2022-08-02T10:18:36;4.10;;;1.83;;
26474;SDS011;14161;52.270;10.334;2022-08-02T10:21:01;2.97;;;1.67;;
26474;SDS011;14161;52.270;10.334;2022-08-02T10:23:33;3.00;;;1.83;;
26474;SDS011;14161;52.270;10.334;2022-08-02T10:25:58;1.52;;;1.30;;
26474;SDS011;14161;52.270;10.334;2022-08-02T10:28:25;5.07;;;1.50;;
26474;SDS011;14161;52.270;10.334;2022-08-02T10:31:02;4.03;;;1.48;;
26474;SDS011;14161;52.270;10.334;2022-08-02T10:33:29;2.50;;;1.65;;
26474;SDS011;14161;52.270;10.334;2022-08-02T10:35:59;4.70;;;1.48;;
26474;SDS011;14161;52.270;10.334;2022-08-02T10:38:25;3.03;;;1.30;;
26474;SDS011;14161;52.270;10.334;2022-08-02T10:40:52;2.63;;;1.20;;
26474;SDS011;14161;52.270;10.334;2022-08-02T10:43:39;1.98;;;1.30;;
26474;SDS011;14161;52.270;10.334;2022-08-02T10:54:59;1.70;;;1.23;;
26474;SDS011;14161;52.270;10.334;2022-08-02T10:57:13;2.85;;;1.48;;
26474;SDS011;14161;52.270;10.334;2022-08-02T10:59:40;1.55;;;1.40;;
26474;SDS011;14161;52.270;10.334;2022-08-02T11:02:05;5.22;;;1.90;;
26474;SDS011;14161;52.270;10.334;2022-08-02T11:09:34;4.60;;;1.50;;
26474;SDS011;14161;52.270;10.334;2022-08-02T11:12:01;2.90;;;1.50;;
26474;SDS011;14161;52.270;10.334;2022-08-02T11:14:31;2.78;;;1.70;;
26474;SDS011;14161;52.270;10.334;2022-08-02T11:19:26;4.18;;;1.80;;
26474;SDS011;14161;52.270;10.334;2022-08-02T11:21:59;2.67;;;1.38;;
26474;SDS011;14161;52.270;10.334;2022-08-02T11:24:40;1.88;;;1.38;;
26474;SDS011;14161;52.270;10.334;2022-08-02T11:27:06;2.13;;;1.65;;
26474;SDS011;14161;52.270;10.334;2022-08-02T11:29:37;2.20;;;1.48;;
26474;SDS011;14161;52.270;10.334;2022-08-02T11:32:13;3.10;;;1.50;;
26474;SDS011;14161;52.270;10.334;2022-08-02T11:34:41;1.50;;;1.20;;
26474;SDS011;14161;52.270;10.334;2022-08-02T11:37:07;3.53;;;1.45;;
26474;SDS011;14161;52.270;10.334;2022-08-02T11:39:33;1.75;;;1.35;;
26474;SDS011;14161;52.270;10.334;2022-08-02T11:41:59;3.70;;;1.45;;
26474;SDS011;14161;52.270;10.334;2022-08-02T11:44:26;3.05;;;1.80;;
26474;SDS011;14161;52.270;10.334;2022-08-02T11:47:00;2.60;;;1.33;;
26474;SDS011;14161;52.270;10.334;2022-08-02T11:49:26;1.42;;;1.30;;
26474;SDS011;14161;52.270;10.334;2022-08-02T11:52:00;3.22;;;1.45;;
26474;SDS011;14161;52.270;10.334;2022-08-02T11:54:30;3.33;;;1.55;;
26474;SDS011;14161;52.270;10.334;2022-08-02T11:59:41;1.48;;;1.20;;
26474;SDS011;14161;52.270;10.334;2022-08-02T12:02:08;1.65;;;1.42;;
26474;SDS011;14161;52.270;10.334;2022-08-02T12:04:34;3.35;;;1.48;;
26474;SDS011;14161;52.270;10.334;2022-08-02T12:07:00;2.20;;;1.30;;
26474;SDS011;14161;52.270;10.334;2022-08-02T12:09:26;2.88;;;1.35;;
26474;SDS011;14161;52.270;10.334;2022-08-02T12:11:53;1.42;;;1.20;;
26474;SDS011;14161;52.270;10.334;2022-08-02T12:14:19;2.58;;;1.30;;
26474;SDS011;14161;52.270;10.334;2022-08-02T12:16:45;5.75;;;1.30;;
26474;SDS011;14161;52.270;10.334;2022-08-02T12:19:30;3.53;;;1.40;;
26474;SDS011;14161;52.270;10.334;2022-08-02T12:22:06;1.23;;;1.13;;
26474;SDS011;14161;52.270;10.334;2022-08-02T12:24:49;1.30;;;1.20;;
26474;SDS011;14161;52.270;10.334;2022-08-02T12:29:58;1.40;;;1.30;;
26474;SDS011;14161;52.270;10.334;2022-08-02T12:32:25;1.33;;;1.20;;
26474;SDS011;14161;52.270;10.334;2022-08-02T12:35:01;1.55;;;1.20;;
26474;SDS011;14161;52.270;10.334;2022-08-02T12:37:27;1.90;;;1.40;;
26474;SDS011;14161;52.270;10.334;2022-08-02T12:39:53;1.92;;;0.98;;
26474;SDS011;14161;52.270;10.334;2022-08-02T12:42:18;6.32;;;1.10;;
26474;SDS011;14161;52.270;10.334;2022-08-02T12:47:19;0.90;;;0.90;;
26474;SDS011;14161;52.270;10.334;2022-08-02T12:53:01;1.85;;;0.90;;
26474;SDS011;14161;52.270;10.334;2022-08-02T12:55:30;1.85;;;1.00;;
26474;SDS011;14161;52.270;10.334;2022-08-02T12:58:00;1.05;;;0.95;;
26474;SDS011;14161;52.270;10.334;2022-08-02T13:00:28;1.15;;;1.05;;
26474;SDS011;14161;52.270;10.334;2022-08-02T13:03:01;0.85;;;0.82;;
26474;SDS011;14161;52.270;10.334;2022-08-02T13:05:28;0.73;;;0.70;;
26474;SDS011;14161;52.270;10.334;2022-08-02T13:07:54;1.10;;;0.80;;
26474;SDS011;14161;52.270;10.334;2022-08-02T13:10:20;1.63;;;0.93;;
26474;SDS011;14161;52.270;10.334;2022-08-02T13:12:47;1.00;;;1.00;;
26474;SDS011;14161;52.270;10.334;2022-08-02T13:15:13;1.10;;;0.93;;
26474;SDS011;14161;52.270;10.334;2022-08-02T13:17:39;2.20;;;0.90;;
26474;SDS011;14161;52.270;10.334;2022-08-02T13:20:05;1.30;;;1.02;;
26474;SDS011;14161;52.270;10.334;2022-08-02T13:25:20;2.55;;;1.10;;
26474;SDS011;14161;52.270;10.334;2022-08-02T13:27:50;2.05;;;1.10;;
26474;SDS011;14161;52.270;10.334;2022-08-02T13:30:16;1.35;;;0.90;;
26474;SDS011;14161;52.270;10.334;2022-08-02T13:32:45;1.10;;;1.00;;
26474;SDS011;14161;52.270;10.334;2022-08-02T13:35:12;2.63;;;1.00;;
26474;SDS011;14161;52.270;10.334;2022-08-02T13:37:37;1.02;;;0.93;;
26474;SDS011;14161;52.270;10.334;2022-08-02T13:40:06;1.52;;;1.02;;
26474;SDS011;14161;52.270;10.334;2022-08-02T13:42:31;1.23;;;1.00;;
26474;SDS011;14161;52.270;10.334;2022-08-02T13:44:57;1.92;;;1.13;;
26474;SDS011;14161;52.270;10.334;2022-08-02T13:47:22;1.05;;;0.95;;
26474;SDS011;14161;52.270;10.334;2022-08-02T13:49:48;1.23;;;0.98;;
26474;SDS011;14161;52.270;10.334;2022-08-02T13:52:14;2.30;;;1.10;;
26474;SDS011;14161;52.270;10.334;2022-08-02T13:54:40;2.08;;;1.00;;
26474;SDS011;14161;52.270;10.334;2022-08-02T13:57:05;3.67;;;0.90;;
26474;SDS011;14161;52.270;10.334;2022-08-02T13:59:31;2.25;;;1.10;;
26474;SDS011;14161;52.270;10.334;2022-08-02T14:01:56;2.70;;;1.00;;
26474;SDS011;14161;52.270;10.334;2022-08-02T14:04:23;1.23;;;1.10;;
26474;SDS011;14161;52.270;10.334;2022-08-02T14:06:48;2.97;;;1.27;;
26474;SDS011;14161;52.270;10.334;2022-08-02T14:09:14;1.33;;;1.20;;
26474;SDS011;14161;52.270;10.334;2022-08-02T14:11:40;1.40;;;1.30;;
26474;SDS011;14161;52.270;10.334;2022-08-02T14:14:05;0.90;;;0.90;;
26474;SDS011;14161;52.270;10.334;2022-08-02T14:16:30;2.78;;;1.00;;
26474;SDS011;14161;52.270;10.334;2022-08-02T14:18:56;2.30;;;1.10;;
26474;SDS011;14161;52.270;10.334;2022-08-02T14:21:24;1.65;;;1.17;;
26474;SDS011;14161;52.270;10.334;2022-08-02T14:23:49;1.40;;;1.10;;
26474;SDS011;14161;52.270;10.334;2022-08-02T14:26:15;2.08;;;0.90;;
26474;SDS011;14161;52.270;10.334;2022-08-02T14:28:40;4.97;;;1.25;;
26474;SDS011;14161;52.270;10.334;2022-08-02T14:31:06;1.00;;;0.90;;
26474;SDS011;14161;52.270;10.334;2022-08-02T14:33:31;2.85;;;1.05;;
26474;SDS011;14161;52.270;10.334;2022-08-02T14:36:04;1.65;;;1.08;;
26474;SDS011;14161;52.270;10.334;2022-08-02T14:38:33;0.90;;;0.90;;
26474;SDS011;14161;52.270;10.334;2022-08-02T14:41:02;1.73;;;1.20;;
26474;SDS011;14161;52.270;10.334;2022-08-02T14:43:28;2.40;;;1.23;;
26474;SDS011;14161;52.270;10.334;2022-08-02T14:46:12;1.20;;;1.10;;
26474;SDS011;14161;52.270;10.334;2022-08-02T14:48:40;1.35;;;1.20;;
26474;SDS011;14161;52.270;10.334;2022-08-02T14:51:08;1.60;;;0.90;;
26474;SDS011;14161;52.270;10.334;2022-08-02T14:53:38;2.05;;;1.17;;
26474;SDS011;14161;52.270;10.334;2022-08-02T14:56:04;1.58;;;1.10;;
26474;SDS011;14161;52.270;10.334;2022-08-02T14:58:29;3.08;;;1.17;;
26474;SDS011;14161;52.270;10.334;2022-08-02T15:00:55;1.00;;;0.90;;
26474;SDS011;14161;52.270;10.334;2022-08-02T15:03:20;0.95;;;0.90;;
26474;SDS011;14161;52.270;10.334;2022-08-02T15:05:46;1.05;;;0.90;;
26474;SDS011;14161;52.270;10.334;2022-08-02T15:08:11;1.45;;;1.10;;
26474;SDS011;14161;52.270;10.334;2022-08-02T15:10:37;1.33;;;1.13;;
26474;SDS011;14161;52.270;10.334;2022-08-02T15:13:03;1.17;;;1.08;;
26474;SDS011;14161;52.270;10.334;2022-08-02T15:15:28;1.13;;;1.02;;
26474;SDS011;14161;52.270;10.334;2022-08-02T15:17:54;1.85;;;0.82;;
26474;SDS011;14161;52.270;10.334;2022-08-02T15:20:20;1.10;;;0.95;;
26474;SDS011;14161;52.270;10.334;2022-08-02T15:22:45;1.13;;;1.02;;
26474;SDS011;14161;52.270;10.334;2022-08-02T15:25:11;1.92;;;1.10;;
26474;SDS011;14161;52.270;10.334;2022-08-02T15:27:37;2.97;;;1.08;;